Time;durP1;ratioP1;P1;durP2;ratioP2;P2;SDS_P1;SDS_P2;PMS_P1;PMS_P2;Temp;Humidity;BMP_temperature;BMP_pressure;BME280_temperature;BME280_humidity;BME280_pressure;Samples;Min_cycle;Max_cycle;Signal;HPM_P1;HPM_P2
2022/10/22 00:01:11;;;;;;;5.85;0.40;;;16.80;99.90;;;;;;6176858;28;20054;-85
2022/10/22 00:04:14;;;;;;;0.20;0.10;;;16.40;99.90;;;;;;6176847;28;20046;-84
2022/10/22 00:07:16;;;;;;;0.47;0.28;;;16.30;99.90;;;;;;6177276;28;20051;-86
2022/10/22 00:10:18;;;;;;;0.70;0.20;;;16.20;99.90;;;;;;6177235;28;20054;-85
2022/10/22 00:13:20;;;;;;;6.65;0.85;;;16.00;99.90;;;;;;6176685;28;20420;-85
2022/10/22 00:16:22;;;;;;;0.88;0.10;;;15.90;99.90;;;;;;6176422;28;20523;-84
2022/10/22 00:19:25;;;;;;;4.80;0.28;;;16.00;99.90;;;;;;6176062;28;20064;-85
2022/10/22 00:22:27;;;;;;;1.35;0.30;;;15.90;99.90;;;;;;6176299;28;20051;-85
2022/10/22 00:25:28;;;;;;;1.55;0.52;;;16.00;99.90;;;;;;6175900;28;20478;-85
2022/10/22 00:28:30;;;;;;;0.80;0.10;;;16.00;99.90;;;;;;6175529;28;20058;-85
2022/10/22 00:31:32;;;;;;;0.50;0.17;;;16.10;99.90;;;;;;6175577;28;20046;-85
2022/10/22 00:34:35;;;;;;;2.67;0.32;;;16.10;99.90;;;;;;6175305;28;20047;-85
2022/10/22 00:37:37;;;;;;;0.73;0.13;;;16.10;99.90;;;;;;6180596;28;20046;-85
2022/10/22 00:40:38;;;;;;;0.75;0.20;;;16.20;99.90;;;;;;6199633;28;20046;-85
2022/10/22 00:43:55;;;;;;;0.95;0.28;;;16.20;99.90;;;;;;6200101;28;20050;-84
2022/10/22 00:46:57;;;;;;;0.35;0.20;;;16.20;99.90;;;;;;6200116;28;20508;-85
2022/10/22 00:50:00;;;;;;;0.30;0.10;;;16.20;99.90;;;;;;6199433;28;20046;-86
2022/10/22 00:53:06;;;;;;;1.42;0.55;;;16.20;99.90;;;;;;6199191;28;20057;-86
2022/10/22 00:56:09;;;;;;;1.90;0.20;;;16.20;99.90;;;;;;6199809;28;20050;-86
2022/10/22 00:59:14;;;;;;;0.20;0.10;;;16.30;99.90;;;;;;6199214;28;20050;-86
2022/10/22 01:02:16;;;;;;;0.15;0.05;;;16.30;99.90;;;;;;6198862;28;20046;-86
2022/10/22 01:05:20;;;;;;;0.95;0.20;;;16.40;99.90;;;;;;6198860;28;20050;-86
2022/10/22 01:08:32;;;;;;;2.80;0.20;;;16.40;99.90;;;;;;6198415;28;20046;-86
2022/10/22 01:11:47;;;;;;;2.83;0.10;;;16.30;99.90;;;;;;6198443;28;20058;-86
2022/10/22 01:15:03;;;;;;;0.77;0.20;;;16.30;99.90;;;;;;6199644;28;20053;-87
2022/10/22 01:18:09;;;;;;;0.20;0.10;;;16.50;99.90;;;;;;6198658;28;20042;-86
2022/10/22 01:21:21;;;;;;;1.60;0.15;;;16.20;99.90;;;;;;6198169;28;20081;-86
2022/10/22 01:24:35;;;;;;;0.90;0.30;;;16.10;99.90;;;;;;6228307;23;20053;-85
2022/10/22 01:27:55;;;;;;;0.10;0.10;;;16.10;99.90;;;;;;6204551;28;20511;-83
2022/10/22 01:31:01;;;;;;;0.25;0.03;;;16.10;99.90;;;;;;6204137;28;20054;-84
2022/10/22 01:34:04;;;;;;;2.97;0.28;;;16.20;99.90;;;;;;6222409;28;20418;-84
2022/10/22 01:37:06;;;;;;;3.42;0.22;;;16.20;99.90;;;;;;6187451;28;20047;-85
2022/10/22 01:40:09;;;;;;;0.98;0.30;;;16.20;99.90;;;;;;6181614;28;20046;-85
2022/10/22 01:43:11;;;;;;;0.88;0.10;;;16.20;99.90;;;;;;6181717;28;20050;-84
2022/10/22 01:46:18;;;;;;;4.43;0.30;;;16.20;99.90;;;;;;6182041;28;20054;-84
2022/10/22 01:49:30;;;;;;;1.08;0.20;;;16.20;99.90;;;;;;6181258;28;20050;-85
2022/10/22 01:52:49;;;;;;;0.63;0.22;;;16.30;99.90;;;;;;6185086;28;20420;-84
2022/10/22 01:56:04;;;;;;;0.60;0.00;;;16.20;99.90;;;;;;6186675;28;20047;-84
2022/10/22 01:59:15;;;;;;;0.47;0.25;;;16.30;99.90;;;;;;6187480;28;20055;-84
2022/10/22 02:02:28;;;;;;;0.98;0.15;;;16.20;99.90;;;;;;6187489;28;20051;-84
2022/10/22 02:05:35;;;;;;;0.63;0.20;;;16.20;99.90;;;;;;6186224;28;20055;-84
2022/10/22 02:08:38;;;;;;;0.40;0.13;;;16.20;99.90;;;;;;6183341;28;20050;-85
2022/10/22 02:11:40;;;;;;;3.60;0.10;;;16.10;99.90;;;;;;6184354;28;20050;-84
2022/10/22 02:14:45;;;;;;;0.25;0.17;;;16.00;99.90;;;;;;6183353;28;20055;-83
2022/10/22 02:17:50;;;;;;;0.28;0.15;;;16.00;99.90;;;;;;6183227;28;20047;-85
2022/10/22 02:20:53;;;;;;;2.95;0.20;;;15.90;99.90;;;;;;6190748;28;20496;-85
2022/10/22 02:23:54;;;;;;;1.13;0.38;;;15.90;99.90;;;;;;6209053;28;20054;-85
2022/10/22 02:27:04;;;;;;;0.40;0.25;;;15.80;99.90;;;;;;6209061;28;20046;-84
2022/10/22 02:30:08;;;;;;;24.42;1.55;;;15.80;99.90;;;;;;6208163;28;20046;-84
2022/10/22 02:33:16;;;;;;;3.20;0.20;;;15.80;99.90;;;;;;6207767;28;20050;-83
2022/10/22 02:36:18;;;;;;;1.38;0.20;;;15.70;99.90;;;;;;6205884;28;20500;-84
2022/10/22 02:39:21;;;;;;;3.35;0.30;;;15.80;99.90;;;;;;6206075;28;20057;-84
2022/10/22 02:42:24;;;;;;;11.10;0.57;;;15.80;99.90;;;;;;6207808;28;20064;-83
2022/10/22 02:45:27;;;;;;;3.40;0.50;;;15.80;99.90;;;;;;6206578;28;20116;-84
2022/10/22 02:48:30;;;;;;;0.98;0.55;;;15.80;99.90;;;;;;6207444;28;20042;-84
2022/10/22 02:51:31;;;;;;;0.70;0.30;;;15.80;99.90;;;;;;6206600;28;20050;-84
2022/10/22 02:54:33;;;;;;;0.93;0.20;;;15.80;99.90;;;;;;6207490;28;20058;-84
2022/10/22 02:57:35;;;;;;;0.60;0.28;;;15.80;99.90;;;;;;6208080;28;20146;-84
2022/10/22 03:00:36;;;;;;;4.03;0.38;;;15.80;99.90;;;;;;6206660;28;20046;-84
2022/10/22 03:03:39;;;;;;;0.75;0.28;;;15.80;99.90;;;;;;6206380;28;20053;-84
2022/10/22 03:06:42;;;;;;;1.13;0.50;;;15.80;99.90;;;;;;6206817;28;20050;-84
2022/10/22 03:09:44;;;;;;;0.10;0.10;;;15.80;99.90;;;;;;6206533;28;20049;-84
2022/10/22 03:12:47;;;;;;;2.45;0.20;;;15.80;99.90;;;;;;6206885;28;20050;-84
2022/10/22 03:15:49;;;;;;;1.88;0.40;;;15.80;99.90;;;;;;6209000;28;20054;-85
2022/10/22 03:18:52;;;;;;;3.30;0.43;;;15.70;99.90;;;;;;6206578;28;20050;-83
2022/10/22 03:21:56;;;;;;;5.78;0.47;;;15.60;99.90;;;;;;6205064;28;20053;-83
2022/10/22 03:25:02;;;;;;;8.45;0.70;;;15.60;99.90;;;;;;6205825;28;20050;-84
2022/10/22 03:28:08;;;;;;;0.50;0.15;;;15.60;99.90;;;;;;6205549;28;20046;-84
2022/10/22 03:31:10;;;;;;;0.20;0.20;;;15.60;99.90;;;;;;6206612;28;20050;-83
2022/10/22 03:34:13;;;;;;;7.97;0.57;;;15.70;99.90;;;;;;6226158;28;20049;-84
2022/10/22 03:37:15;;;;;;;3.80;0.47;;;15.60;99.90;;;;;;6225528;28;20042;-84
2022/10/22 03:40:17;;;;;;;1.73;0.40;;;15.50;99.90;;;;;;6205512;28;20527;-84
2022/10/22 03:43:19;;;;;;;0.30;0.20;;;15.40;99.90;;;;;;6209588;28;20050;-84
2022/10/22 03:46:20;;;;;;;0.85;0.40;;;15.30;99.90;;;;;;6205949;28;20400;-84
2022/10/22 03:49:23;;;;;;;1.10;0.40;;;15.20;99.90;;;;;;6207060;28;20050;-83
2022/10/22 03:52:25;;;;;;;2.30;0.47;;;15.10;99.90;;;;;;6206605;28;20073;-85
2022/10/22 03:55:27;;;;;;;4.13;0.68;;;15.10;99.90;;;;;;6206308;28;20404;-84
2022/10/22 03:58:29;;;;;;;2.00;0.30;;;15.00;99.90;;;;;;6206845;28;20518;-84
2022/10/22 04:01:31;;;;;;;3.47;0.70;;;14.90;99.90;;;;;;6208548;28;20420;-84
2022/10/22 04:04:34;;;;;;;0.73;0.40;;;14.90;99.90;;;;;;6206992;28;20053;-84
2022/10/22 04:07:36;;;;;;;0.65;0.40;;;14.90;99.90;;;;;;6207833;28;20140;-84
2022/10/22 04:10:37;;;;;;;1.88;0.43;;;14.90;99.90;;;;;;6206928;28;20042;-83
2022/10/22 04:13:39;;;;;;;1.67;0.55;;;14.80;99.90;;;;;;6205907;28;20046;-84
2022/10/22 04:16:41;;;;;;;6.93;0.93;;;14.80;99.90;;;;;;6204417;28;20043;-84
2022/10/22 04:19:44;;;;;;;2.17;0.95;;;14.90;99.90;;;;;;6205706;28;20080;-85
2022/10/22 04:22:46;;;;;;;2.35;0.57;;;14.90;99.90;;;;;;6206025;28;20061;-84
2022/10/22 04:25:48;;;;;;;1.58;0.57;;;14.80;99.90;;;;;;6205823;28;20050;-84
2022/10/22 04:28:51;;;;;;;2.45;0.50;;;14.80;99.90;;;;;;6205008;28;20053;-83
2022/10/22 04:31:53;;;;;;;5.18;1.13;;;14.80;99.90;;;;;;6204856;28;20050;-83
2022/10/22 04:34:56;;;;;;;2.67;0.40;;;14.90;99.90;;;;;;6204827;28;20050;-83
2022/10/22 04:37:58;;;;;;;6.05;0.70;;;14.90;99.90;;;;;;6203670;28;20057;-84
2022/10/22 04:41:08;;;;;;;3.85;0.68;;;14.90;99.90;;;;;;6183703;28;20047;-85
2022/10/22 04:44:10;;;;;;;9.30;0.90;;;14.90;99.90;;;;;;6180915;28;20047;-84
2022/10/22 04:47:12;;;;;;;0.88;0.43;;;15.00;99.90;;;;;;6180789;28;20054;-83
2022/10/22 04:50:15;;;;;;;6.20;0.70;;;15.00;99.90;;;;;;6180265;28;20050;-84
2022/10/22 04:53:16;;;;;;;3.53;0.50;;;15.00;99.90;;;;;;6179813;28;20055;-83
2022/10/22 04:56:20;;;;;;;6.70;2.15;;;15.00;99.90;;;;;;6179831;28;20046;-84
2022/10/22 04:59:22;;;;;;;4.95;0.93;;;15.00;99.90;;;;;;6179693;28;20055;-85
2022/10/22 05:02:24;;;;;;;1.75;0.85;;;15.00;99.90;;;;;;6181274;28;20382;-83
2022/10/22 05:05:27;;;;;;;1.40;1.05;;;15.00;99.90;;;;;;6208620;28;20515;-83
2022/10/22 05:08:28;;;;;;;0.95;0.50;;;15.00;99.90;;;;;;6228008;28;20042;-84
2022/10/22 05:11:32;;;;;;;4.55;0.75;;;15.00;99.90;;;;;;6215188;28;20744;-83
2022/10/22 05:14:34;;;;;;;2.30;0.70;;;15.00;99.90;;;;;;6179395;28;20057;-84
2022/10/22 05:17:37;;;;;;;2.53;1.10;;;14.90;99.90;;;;;;6197995;28;20072;-84
2022/10/22 05:20:40;;;;;;;7.32;0.98;;;14.90;99.90;;;;;;6203548;28;20050;-84
2022/10/22 05:23:43;;;;;;;6.40;1.58;;;14.90;99.90;;;;;;6202037;28;20050;-83
2022/10/22 05:26:45;;;;;;;1.13;0.60;;;14.80;99.90;;;;;;6203600;28;20564;-83
2022/10/22 05:29:46;;;;;;;2.95;1.13;;;14.80;99.90;;;;;;6203065;28;20275;-83
2022/10/22 05:32:48;;;;;;;2.88;1.05;;;14.70;99.90;;;;;;6204017;28;20053;-83
2022/10/22 05:35:51;;;;;;;3.38;0.82;;;14.70;99.90;;;;;;6203263;28;20043;-83
2022/10/22 05:38:54;;;;;;;9.05;1.92;;;14.70;99.90;;;;;;6203180;28;20109;-83
2022/10/22 05:41:55;;;;;;;3.25;1.55;;;14.60;99.90;;;;;;6180915;28;20416;-82
2022/10/22 05:44:57;;;;;;;3.00;1.42;;;14.70;99.90;;;;;;6178403;28;20504;-83
2022/10/22 05:47:59;;;;;;;8.48;0.80;;;14.80;99.90;;;;;;6179260;28;20054;-83
2022/10/22 05:51:04;;;;;;;7.55;1.25;;;14.70;99.90;;;;;;6179933;28;20047;-83
2022/10/22 05:54:09;;;;;;;3.30;0.75;;;14.70;99.90;;;;;;6179041;28;20058;-83
2022/10/22 05:57:11;;;;;;;4.47;1.23;;;14.70;99.90;;;;;;6179478;28;20051;-84
2022/10/22 06:00:14;;;;;;;4.35;0.98;;;14.70;99.90;;;;;;6178899;28;20074;-83
2022/10/22 06:03:15;;;;;;;2.30;1.33;;;14.70;99.90;;;;;;6180432;28;20058;-83
2022/10/22 06:06:21;;;;;;;5.10;1.58;;;14.70;99.90;;;;;;6179111;28;20055;-83
2022/10/22 06:09:27;;;;;;;4.88;1.08;;;14.80;99.90;;;;;;6178428;28;20073;-84
2022/10/22 06:12:29;;;;;;;7.43;1.10;;;14.90;99.90;;;;;;6179095;28;20047;-82
2022/10/22 06:15:30;;;;;;;3.65;0.82;;;15.00;99.90;;;;;;6178494;28;20436;-83
2022/10/22 06:18:33;;;;;;;2.35;0.85;;;15.20;99.90;;;;;;6178702;28;20091;-83
2022/10/22 06:21:36;;;;;;;2.67;1.10;;;15.30;99.90;;;;;;6179763;28;20046;-83
2022/10/22 06:24:38;;;;;;;3.25;1.02;;;15.40;99.90;;;;;;6178627;28;20425;-83
2022/10/22 06:27:39;;;;;;;2.55;1.00;;;15.40;99.90;;;;;;6177601;28;20054;-84
2022/10/22 06:30:41;;;;;;;3.60;1.35;;;15.30;99.90;;;;;;6178803;28;20047;-82
2022/10/22 06:33:43;;;;;;;1.65;0.68;;;15.20;99.90;;;;;;6178708;28;20051;-83
2022/10/22 06:36:46;;;;;;;5.25;0.90;;;15.20;99.90;;;;;;6178878;28;20050;-83
2022/10/22 06:39:48;;;;;;;1.35;0.75;;;15.30;99.90;;;;;;6181910;28;20053;-83
2022/10/22 06:42:50;;;;;;;3.92;1.27;;;15.30;99.90;;;;;;6182546;28;20121;-83
2022/10/22 06:45:51;;;;;;;2.38;1.30;;;15.30;99.90;;;;;;6182260;28;20047;-83
2022/10/22 06:48:55;;;;;;;2.83;1.17;;;15.30;99.90;;;;;;6182578;28;20051;-83
2022/10/22 06:51:58;;;;;;;2.13;1.30;;;15.40;99.90;;;;;;6182137;28;20057;-83
2022/10/22 06:55:00;;;;;;;7.53;1.20;;;15.30;99.90;;;;;;6182385;28;20061;-83
2022/10/22 06:58:01;;;;;;;1.70;1.00;;;15.40;99.90;;;;;;6181385;28;20054;-83
2022/10/22 07:01:04;;;;;;;3.42;1.23;;;15.40;99.90;;;;;;6158739;28;20059;-82
2022/10/22 07:04:07;;;;;;;3.03;0.77;;;15.50;99.90;;;;;;6191331;28;20074;-83
2022/10/22 07:07:10;;;;;;;5.25;1.40;;;15.50;99.90;;;;;;6196963;28;20101;-83
2022/10/22 07:10:12;;;;;;;3.38;1.52;;;15.60;99.90;;;;;;6182083;28;20497;-83
2022/10/22 07:13:14;;;;;;;4.80;1.08;;;15.70;99.90;;;;;;6180879;28;20046;-83
2022/10/22 07:16:18;;;;;;;4.72;1.00;;;15.90;99.90;;;;;;6181468;28;20047;-83
2022/10/22 07:19:19;;;;;;;4.03;1.58;;;16.00;99.90;;;;;;6181003;28;20062;-82
2022/10/22 07:22:22;;;;;;;5.28;1.48;;;16.20;99.90;;;;;;6179993;28;20058;-82
2022/10/22 07:25:24;;;;;;;5.63;1.73;;;16.30;99.90;;;;;;6179752;28;20062;-83
2022/10/22 07:36:45;;;;;;;5.43;1.17;;;16.50;99.90;;;;;;6096505;28;20130;-83
2022/10/22 07:39:57;;;;;;;3.88;0.90;;;16.70;99.90;;;;;;6181447;28;20050;-84
2022/10/22 07:43:09;;;;;;;2.10;1.30;;;17.00;99.90;;;;;;6180342;28;20125;-83
2022/10/22 07:46:11;;;;;;;3.38;1.20;;;17.20;99.90;;;;;;6170969;28;20113;-83
2022/10/22 07:53:21;;;;;;;2.38;0.70;;;17.80;99.90;;;;;;6180703;28;20027;-83
2022/10/22 08:00:07;;;;;;;1.23;0.32;;;18.30;99.90;;;;;;6243067;23;20440;-84
2022/10/22 08:03:24;;;;;;;;;;;18.40;99.90;;;;;;6216238;28;20077;-85
2022/10/22 08:09:51;;;;;;;2.55;0.32;;;18.40;99.90;;;;;;6287300;22;20049;-84
2022/10/22 08:16:38;;;;;;;0.85;0.25;;;18.60;99.90;;;;;;6195547;28;20046;-84
2022/10/22 08:19:42;;;;;;;1.88;0.65;;;18.70;99.90;;;;;;6181278;28;20078;-82
2022/10/22 08:22:47;;;;;;;4.60;0.55;;;19.00;99.90;;;;;;6182992;28;20134;-83
2022/10/22 08:26:22;;;;;;;0.75;0.43;;;19.30;99.90;;;;;;6181676;28;20062;-84
2022/10/22 08:29:30;;;;;;;2.63;0.20;;;19.60;99.90;;;;;;6183197;28;20074;-84
2022/10/22 08:32:37;;;;;;;10.05;0.75;;;19.90;99.90;;;;;;6177133;28;20051;-82
2022/10/22 08:35:38;;;;;;;0.93;0.43;;;19.90;99.90;;;;;;6175016;28;20058;-83
2022/10/22 08:38:40;;;;;;;0.85;0.20;;;19.90;99.90;;;;;;6181064;28;20089;-83
2022/10/22 08:41:49;;;;;;;2.08;0.70;;;19.80;99.90;;;;;;6174437;28;20058;-83
2022/10/22 08:45:10;;;;;;;2.63;1.33;;;19.70;99.90;;;;;;6156618;28;20677;-83
2022/10/22 08:48:29;;;;;;;1.60;1.10;;;19.60;99.90;;;;;;6154168;28;20059;-82
2022/10/22 08:51:34;;;;;;;0.65;0.38;;;19.70;99.90;;;;;;6154965;28;20054;-82
2022/10/22 08:54:43;;;;;;;1.08;0.32;;;19.80;99.90;;;;;;6160062;28;20652;-82
2022/10/22 08:57:51;;;;;;;3.33;0.50;;;19.80;99.90;;;;;;6203946;28;20050;-82
2022/10/22 09:00:56;;;;;;;;;;;20.20;99.90;;;;;;6184283;28;20069;-82
2022/10/22 09:04:05;;;;;;;2.05;0.30;;;20.60;99.90;;;;;;6197656;28;19957;-83
2022/10/22 09:07:10;;;;;;;2.63;0.55;;;20.70;99.90;;;;;;6204754;28;20050;-82
2022/10/22 09:10:13;;;;;;;0.63;0.20;;;20.90;99.90;;;;;;6204211;28;20416;-83
2022/10/22 09:13:19;;;;;;;7.43;0.30;;;20.90;99.90;;;;;;6204238;28;20042;-83
2022/10/22 09:16:29;;;;;;;1.35;0.15;;;20.90;99.90;;;;;;6203823;28;20393;-83
2022/10/22 09:19:39;;;;;;;0.93;0.30;;;21.00;99.90;;;;;;6203332;28;20133;-83
2022/10/22 09:22:50;;;;;;;1.40;0.40;;;21.10;99.90;;;;;;6203867;28;20051;-83
2022/10/22 09:25:54;;;;;;;0.32;0.10;;;21.40;99.90;;;;;;6205122;28;20069;-83
2022/10/22 09:29:00;;;;;;;0.88;0.30;;;21.90;99.90;;;;;;6206312;28;20125;-83
2022/10/22 09:32:02;;;;;;;1.92;0.20;;;22.30;99.90;;;;;;6195453;28;20054;-82
2022/10/22 09:35:11;;;;;;;0.60;0.20;;;22.90;99.90;;;;;;6187211;28;20062;-82
2022/10/22 09:38:15;;;;;;;4.50;0.30;;;23.40;99.90;;;;;;6182035;28;20047;-83
2022/10/22 09:41:18;;;;;;;2.63;0.28;;;23.60;99.90;;;;;;6179624;28;20050;-84
2022/10/22 09:44:21;;;;;;;0.68;0.17;;;23.80;99.90;;;;;;6169854;28;20047;-83
2022/10/22 09:57:09;;;;;;;0.93;0.10;;;24.40;99.90;;;;;;6208727;23;20063;-83
2022/10/22 10:03:34;;;;;;;0.85;0.30;;;24.90;99.90;;;;;;6205540;28;20181;-85
2022/10/22 10:06:39;;;;;;;2.83;0.52;;;25.10;99.90;;;;;;6229056;28;20050;-85
2022/10/22 10:09:41;;;;;;;1.42;0.22;;;25.10;99.90;;;;;;6227459;28;20061;-85
2022/10/22 10:12:49;;;;;;;2.58;0.20;;;25.30;99.90;;;;;;6229014;28;20053;-85
2022/10/22 10:15:58;;;;;;;17.88;2.28;;;25.50;99.90;;;;;;6232439;28;20415;-85
2022/10/22 10:19:11;;;;;;;0.52;0.10;;;25.70;99.90;;;;;;6233318;28;20053;-84
2022/10/22 10:22:26;;;;;;;1.92;0.10;;;25.70;99.90;;;;;;6232830;28;20050;-83
2022/10/22 10:25:37;;;;;;;0.08;0.08;;;26.00;99.90;;;;;;6232927;28;20685;-84
2022/10/22 10:28:52;;;;;;;0.43;0.30;;;26.20;99.90;;;;;;6232256;28;20049;-84
2022/10/22 10:32:07;;;;;;;1.48;0.35;;;26.50;99.70;;;;;;6227136;28;20049;-84
2022/10/22 10:35:20;;;;;;;0.38;0.13;;;26.80;99.40;;;;;;6210566;28;20126;-85
2022/10/22 10:38:38;;;;;;;0.05;0.05;;;27.30;99.10;;;;;;6207404;28;20061;-85
2022/10/22 10:41:51;;;;;;;2.65;0.32;;;27.20;96.90;;;;;;6207489;28;20108;-84
2022/10/22 10:45:10;;;;;;;0.98;0.20;;;27.00;96.80;;;;;;6205818;28;20053;-84
2022/10/22 10:48:25;;;;;;;2.40;0.28;;;26.50;96.80;;;;;;6183425;28;20046;-84
2022/10/22 10:51:37;;;;;;;0.00;0.00;;;26.30;96.60;;;;;;6198650;28;20048;-84
2022/10/22 10:54:46;;;;;;;0.57;0.17;;;26.10;97.20;;;;;;6230306;28;20068;-83
2022/10/22 10:57:58;;;;;;;0.55;0.10;;;26.30;97.30;;;;;;6229077;28;20518;-84
2022/10/22 11:01:09;;;;;;;0.70;0.30;;;26.50;96.50;;;;;;6226916;28;20049;-84
2022/10/22 11:04:43;;;;;;;2.70;0.32;;;26.70;96.70;;;;;;6212239;28;20054;-84
2022/10/22 11:07:49;;;;;;;0.68;0.17;;;27.10;96.30;;;;;;6192512;28;20054;-84
2022/10/22 11:10:54;;;;;;;0.68;0.20;;;27.50;95.30;;;;;;6206540;28;20443;-83
2022/10/22 11:14:00;;;;;;;1.00;0.20;;;27.80;94.10;;;;;;6223721;28;20042;-84
2022/10/22 11:17:06;;;;;;;1.88;0.28;;;27.80;92.70;;;;;;6225373;28;20057;-84
2022/10/22 11:20:17;;;;;;;1.08;0.30;;;28.00;92.30;;;;;;6225703;28;20415;-84
2022/10/22 11:23:25;;;;;;;1.95;0.38;;;28.20;90.90;;;;;;6234383;28;20054;-84
2022/10/22 11:26:37;;;;;;;1.75;0.43;;;28.30;88.80;;;;;;6250912;28;20042;-84
2022/10/22 11:29:42;;;;;;;1.33;0.20;;;28.20;86.50;;;;;;6239895;28;20447;-85
2022/10/22 11:32:48;;;;;;;0.50;0.15;;;28.20;83.10;;;;;;6241470;28;20396;-85
2022/10/22 11:35:51;;;;;;;5.25;0.63;;;28.10;82.60;;;;;;6251942;28;20045;-83
2022/10/22 11:38:53;;;;;;;0.70;0.32;;;28.30;81.90;;;;;;6245457;28;20133;-83
2022/10/22 11:41:57;;;;;;;3.05;0.60;;;28.40;80.30;;;;;;6226227;28;20049;-82
2022/10/22 11:45:01;;;;;;;1.65;0.20;;;28.50;79.20;;;;;;6217975;28;20051;-83
2022/10/22 11:48:23;;;;;;;1.58;0.32;;;28.80;78.10;;;;;;6367722;23;20049;-83
2022/10/22 11:52:07;;;;;;;5.07;0.30;;;29.00;76.60;;;;;;6193107;28;20122;-83
2022/10/22 11:55:58;;;;;;;0.38;0.17;;;29.30;76.10;;;;;;6204133;28;20054;-84
2022/10/22 11:59:06;;;;;;;5.57;0.40;;;29.50;74.10;;;;;;6194136;28;20069;-84
2022/10/22 12:06:52;;;;;;;3.38;0.40;;;29.70;71.50;;;;;;6228018;28;20391;-83
2022/10/22 12:09:54;;;;;;;3.95;0.60;;;29.70;69.70;;;;;;6227783;28;20049;-84
2022/10/22 12:13:43;;;;;;;2.60;0.57;;;30.00;69.10;;;;;;6229214;28;20414;-84
2022/10/22 12:17:03;;;;;;;0.95;0.38;;;30.00;68.50;;;;;;6173746;28;20520;-83
2022/10/22 12:20:58;;;;;;;2.15;0.20;;;30.20;67.80;;;;;;6212336;28;20076;-85
2022/10/22 12:40:56;;;;;;;3.80;0.30;;;30.90;62.00;;;;;;6177543;28;20062;-84
2022/10/22 12:44:14;;;;;;;8.20;0.45;;;30.70;60.20;;;;;;6168494;28;20443;-84
2022/10/22 12:55:09;;;;;;;3.88;0.50;;;30.60;60.90;;;;;;6138117;28;20059;-84
2022/10/22 12:58:17;;;;;;;0.68;0.30;;;30.70;59.20;;;;;;6153706;28;20051;-84
2022/10/22 13:01:19;;;;;;;7.60;4.50;;;30.60;58.90;;;;;;6166918;28;20038;-84
2022/10/22 13:04:32;;;;;;;1.55;0.57;;;30.60;58.10;;;;;;6194562;28;20052;-84
2022/10/22 13:07:39;;;;;;;7.70;0.63;;;30.70;58.40;;;;;;6202377;28;20061;-83
2022/10/22 13:10:48;;;;;;;0.80;0.38;;;30.90;58.10;;;;;;6202909;28;20057;-84
2022/10/22 13:14:00;;;;;;;1.35;0.30;;;31.10;57.80;;;;;;6202145;28;20046;-84
2022/10/22 13:17:06;;;;;;;1.95;0.50;;;31.20;57.30;;;;;;6203424;28;20053;-83
2022/10/22 13:20:20;;;;;;;2.65;1.83;;;31.30;57.00;;;;;;6202363;28;20047;-85
2022/10/22 13:23:24;;;;;;;5.57;0.82;;;31.30;57.30;;;;;;6202515;28;20034;-82
2022/10/22 13:26:31;;;;;;;3.60;1.20;;;31.40;56.30;;;;;;6199618;28;20419;-83
2022/10/22 13:29:34;;;;;;;1.95;0.50;;;31.40;55.60;;;;;;6198617;28;20070;-83
2022/10/22 13:32:38;;;;;;;1.98;0.90;;;31.40;55.00;;;;;;6227339;23;20050;-82
2022/10/22 13:35:40;;;;;;;2.85;0.52;;;31.30;54.80;;;;;;6223293;28;20049;-81
2022/10/22 13:38:43;;;;;;;5.82;0.45;;;31.20;54.90;;;;;;6224857;28;20418;-81
2022/10/22 13:41:45;;;;;;;1.67;0.55;;;31.20;53.80;;;;;;6223856;28;20407;-81
2022/10/22 13:44:48;;;;;;;2.92;0.25;;;31.00;53.80;;;;;;6224637;28;20054;-82
2022/10/22 13:47:52;;;;;;;1.33;0.30;;;30.90;53.20;;;;;;6207345;28;20082;-81
2022/10/22 13:50:54;;;;;;;3.95;0.22;;;30.60;53.60;;;;;;6205261;28;20054;-81
2022/10/22 13:53:56;;;;;;;5.07;1.00;;;30.70;54.00;;;;;;6204862;28;20070;-81
2022/10/22 13:56:57;;;;;;;2.53;0.20;;;30.70;53.50;;;;;;6204228;28;20058;-81
2022/10/22 14:00:01;;;;;;;1.60;0.20;;;30.60;53.60;;;;;;6204937;28;20065;-81
2022/10/22 14:03:02;;;;;;;3.88;0.88;;;30.60;53.00;;;;;;6215367;28;20068;-82
2022/10/22 14:06:11;;;;;;;3.15;0.28;;;30.50;52.60;;;;;;6229209;28;20046;-80
2022/10/22 14:09:15;;;;;;;0.60;0.20;;;30.30;52.20;;;;;;6229500;28;20072;-81
2022/10/22 14:12:17;;;;;;;1.88;0.55;;;30.10;51.70;;;;;;6229258;28;20056;-81
2022/10/22 14:15:23;;;;;;;5.93;4.18;;;30.10;52.10;;;;;;6229227;28;20050;-81
2022/10/22 14:18:30;;;;;;;3.92;1.85;;;30.00;52.30;;;;;;6230059;28;20057;-81
2022/10/22 14:21:35;;;;;;;4.53;0.40;;;30.00;52.20;;;;;;6229812;28;20100;-81
2022/10/22 14:24:37;;;;;;;4.15;0.43;;;30.10;52.50;;;;;;6229738;28;20073;-80
2022/10/22 14:27:38;;;;;;;2.58;0.47;;;30.30;51.70;;;;;;6229013;28;20380;-81
2022/10/22 14:30:41;;;;;;;2.38;0.32;;;30.30;50.90;;;;;;6226196;28;20057;-82
2022/10/22 14:33:43;;;;;;;2.55;0.47;;;30.30;50.90;;;;;;6219325;28;20050;-81
2022/10/22 14:36:45;;;;;;;1.80;0.20;;;30.20;51.30;;;;;;6230310;28;20053;-81
2022/10/22 14:39:51;;;;;;;7.78;0.60;;;30.10;51.30;;;;;;6228238;28;20050;-80
2022/10/22 14:42:53;;;;;;;3.00;0.40;;;30.00;51.40;;;;;;6229628;28;20068;-81
2022/10/22 14:45:56;;;;;;;4.97;0.45;;;29.90;52.20;;;;;;6227994;28;20050;-83
2022/10/22 14:48:58;;;;;;;3.10;0.45;;;29.90;52.20;;;;;;6195303;28;20054;-82
2022/10/22 14:52:00;;;;;;;2.17;0.68;;;30.00;52.50;;;;;;6204249;28;20046;-81
2022/10/22 14:55:01;;;;;;;1.15;0.30;;;30.10;52.60;;;;;;6206201;28;20050;-81
2022/10/22 14:58:03;;;;;;;6.50;1.00;;;30.10;52.40;;;;;;6204614;28;20061;-82
2022/10/22 15:01:07;;;;;;;2.20;0.32;;;30.10;52.40;;;;;;6206796;28;20042;-81
2022/10/22 15:04:09;;;;;;;5.95;1.50;;;30.00;52.20;;;;;;6220941;28;20443;-82
2022/10/22 15:07:11;;;;;;;2.83;0.45;;;29.80;52.30;;;;;;6229682;28;20397;-82
2022/10/22 15:10:12;;;;;;;0.43;0.30;;;29.50;52.30;;;;;;6229503;28;20530;-81
2022/10/22 15:13:14;;;;;;;5.97;0.20;;;29.30;52.70;;;;;;6230092;28;20419;-81
2022/10/22 15:16:17;;;;;;;4.45;0.60;;;29.10;53.10;;;;;;6229142;28;20049;-81
2022/10/22 15:19:19;;;;;;;4.18;0.60;;;29.00;53.60;;;;;;6227520;28;20049;-80
2022/10/22 15:22:21;;;;;;;1.58;0.52;;;29.00;54.00;;;;;;6228109;28;20046;-82
2022/10/22 15:25:23;;;;;;;2.30;0.47;;;28.90;55.20;;;;;;6228602;28;20049;-80
2022/10/22 15:28:25;;;;;;;1.63;0.43;;;28.70;55.00;;;;;;6228280;28;20526;-80
2022/10/22 15:31:46;;;;;;;1.95;0.45;;;28.40;55.70;;;;;;6224278;28;20038;-80
2022/10/22 15:34:48;;;;;;;2.83;0.95;;;27.90;56.30;;;;;;6212620;28;20054;-81
2022/10/22 15:37:51;;;;;;;3.58;0.30;;;27.50;57.80;;;;;;6204121;28;20046;-80
2022/10/22 15:41:00;;;;;;;6.20;0.63;;;27.00;58.90;;;;;;6203910;28;20053;-80
2022/10/22 15:44:02;;;;;;;2.67;0.35;;;26.40;60.00;;;;;;6203313;28;20047;-81
2022/10/22 15:47:06;;;;;;;2.28;0.25;;;25.80;60.80;;;;;;6204380;28;20053;-80
2022/10/22 15:50:08;;;;;;;2.20;0.52;;;25.20;62.00;;;;;;6201819;28;20411;-81
2022/10/22 15:53:10;;;;;;;3.15;0.88;;;24.50;63.50;;;;;;6202736;28;20054;-80
2022/10/22 15:56:12;;;;;;;4.22;1.08;;;23.90;65.00;;;;;;6202184;28;20050;-80
2022/10/22 15:59:15;;;;;;;0.68;0.40;;;23.40;66.70;;;;;;6201961;28;20054;-80
2022/10/22 16:02:18;;;;;;;3.17;1.38;;;22.90;68.20;;;;;;6210060;28;20046;-80
2022/10/22 16:05:20;;;;;;;3.17;0.40;;;22.40;69.50;;;;;;6221559;28;20054;-81
2022/10/22 16:08:22;;;;;;;3.05;0.50;;;22.00;70.70;;;;;;6225797;28;20061;-80
2022/10/22 16:11:24;;;;;;;1.25;0.50;;;21.60;71.90;;;;;;6225461;28;20050;-80
2022/10/22 16:14:27;;;;;;;2.13;0.40;;;21.20;73.20;;;;;;6226430;28;20057;-80
2022/10/22 16:17:30;;;;;;;2.47;0.50;;;20.90;74.40;;;;;;6225703;28;20172;-80
2022/10/22 16:20:32;;;;;;;2.35;0.68;;;20.60;75.70;;;;;;6226512;28;20050;-80
2022/10/22 16:23:34;;;;;;;3.28;0.60;;;20.30;77.30;;;;;;6226908;28;20057;-80
2022/10/22 16:26:36;;;;;;;4.88;0.70;;;20.00;77.70;;;;;;6227842;28;20499;-80
2022/10/22 16:29:38;;;;;;;5.05;0.50;;;19.80;78.70;;;;;;6226737;28;20046;-80
2022/10/22 16:32:41;;;;;;;1.45;0.50;;;19.40;79.80;;;;;;6217993;28;20053;-80
2022/10/22 16:35:43;;;;;;;9.82;0.95;;;19.20;81.10;;;;;;6203720;28;20061;-80
2022/10/22 16:38:46;;;;;;;8.65;0.85;;;18.90;82.20;;;;;;6203124;28;20054;-80
2022/10/22 16:41:47;;;;;;;3.22;0.57;;;18.70;83.50;;;;;;6202262;28;20050;-81
2022/10/22 16:44:49;;;;;;;5.30;0.40;;;18.40;84.70;;;;;;6203727;28;20050;-81
2022/10/22 16:47:52;;;;;;;5.82;0.57;;;18.20;85.90;;;;;;6231138;28;20525;-81
2022/10/22 16:50:54;;;;;;;6.03;0.43;;;18.00;87.20;;;;;;6208111;28;20054;-80
2022/10/22 16:53:57;;;;;;;8.30;0.68;;;17.80;88.30;;;;;;6178372;28;20073;-81
2022/10/22 16:56:58;;;;;;;5.25;1.10;;;17.60;89.50;;;;;;6177629;28;20055;-81
2022/10/22 17:00:00;;;;;;;8.10;0.60;;;17.50;90.20;;;;;;6177278;28;20523;-81
2022/10/22 17:03:03;;;;;;;7.70;1.00;;;17.30;90.70;;;;;;6208169;28;20049;-81
2022/10/22 17:06:06;;;;;;;6.10;1.65;;;17.20;91.30;;;;;;6201034;28;20046;-80
2022/10/22 17:09:07;;;;;;;9.27;0.70;;;17.10;91.70;;;;;;6200717;28;20138;-81
2022/10/22 17:12:09;;;;;;;6.15;0.90;;;16.90;92.10;;;;;;6201210;28;20050;-81